createdAt,value
2022-08-24T00:01:27.836Z,18.94
2022-08-24T00:03:59.922Z,19.36
2022-08-24T00:06:28.685Z,19.90
2022-08-24T00:08:57.831Z,19.92
2022-08-24T00:11:26.787Z,19.02
2022-08-24T00:13:54.406Z,19.79
2022-08-24T00:16:22.355Z,19.81
2022-08-24T00:18:50.055Z,18.89
2022-08-24T00:21:19.013Z,18.74
2022-08-24T00:23:49.579Z,18.54
2022-08-24T00:26:19.616Z,18.88
2022-08-24T00:28:57.825Z,19.32
2022-08-24T00:31:26.017Z,19.03
2022-08-24T00:33:54.460Z,18.88
2022-08-24T00:36:23.076Z,18.79
2022-08-24T00:38:50.970Z,19.31
2022-08-24T00:41:18.890Z,19.57
2022-08-24T00:43:58.733Z,19.48
2022-08-24T00:46:42.341Z,19.67
2022-08-24T00:49:25.841Z,19.90
2022-08-24T00:52:21.435Z,20.26
2022-08-24T00:55:06.285Z,19.84
2022-08-24T00:57:35.851Z,19.39
2022-08-24T01:00:18.135Z,20.19
2022-08-24T01:02:49.022Z,20.10
2022-08-24T01:05:17.927Z,19.65
2022-08-24T01:07:48.635Z,20.10
2022-08-24T01:10:25.201Z,20.20
2022-08-24T01:13:01.003Z,19.09
2022-08-24T01:15:30.597Z,19.93
2022-08-24T01:18:17.804Z,20.06
2022-08-24T01:20:46.730Z,19.98
2022-08-24T01:23:27.792Z,19.97
2022-08-24T01:26:05.190Z,20.01
2022-08-24T01:28:34.124Z,20.16
2022-08-24T01:31:04.745Z,19.77
2022-08-24T01:33:33.134Z,20.04
2022-08-24T01:36:28.540Z,19.76
2022-08-24T01:38:56.955Z,19.65
2022-08-24T01:41:28.910Z,19.49
2022-08-24T01:43:57.952Z,19.81
2022-08-24T01:46:26.766Z,18.59
2022-08-24T01:48:54.326Z,19.48
2022-08-24T01:51:21.825Z,19.62
2022-08-24T01:53:49.630Z,19.34
2022-08-24T01:56:17.300Z,19.63
2022-08-24T01:58:46.306Z,20.06
2022-08-24T02:01:15.600Z,19.97
2022-08-24T02:03:43.930Z,19.99
2022-08-24T02:06:12.233Z,20.13
2022-08-24T02:08:39.764Z,20.01
2022-08-24T02:11:08.971Z,19.80
2022-08-24T02:13:38.011Z,19.82
2022-08-24T02:16:06.673Z,20.00
2022-08-24T02:18:37.490Z,20.09
2022-08-24T02:21:08.789Z,19.86
2022-08-24T02:23:37.484Z,19.91
2022-08-24T02:26:07.079Z,19.65
2022-08-24T02:28:35.824Z,19.75
2022-08-24T02:31:06.051Z,19.26
2022-08-24T02:33:39.087Z,19.62
2022-08-24T02:36:25.418Z,19.99
2022-08-24T02:38:55.788Z,19.93
2022-08-24T02:41:24.778Z,19.49
2022-08-24T02:43:53.810Z,19.58
2022-08-24T02:46:25.425Z,19.93
2022-08-24T02:49:10.431Z,19.91
2022-08-24T02:51:44.835Z,19.67
2022-08-24T02:54:17.593Z,19.33
2022-08-24T02:56:46.440Z,19.47
2022-08-24T02:59:15.460Z,19.21
2022-08-24T03:01:43.866Z,19.22
2022-08-24T03:04:13.215Z,19.29
2022-08-24T03:06:41.117Z,19.35
2022-08-24T03:09:09.095Z,19.34
2022-08-24T03:11:37.147Z,19.56
2022-08-24T03:14:04.773Z,19.40
2022-08-24T03:16:33.548Z,19.45
2022-08-24T03:19:01.556Z,19.39
2022-08-24T03:21:30.826Z,19.57
2022-08-24T03:23:58.439Z,19.42
2022-08-24T03:26:26.177Z,19.52
2022-08-24T03:28:54.212Z,19.61
2022-08-24T03:31:21.906Z,19.14
2022-08-24T03:33:50.058Z,18.99
2022-08-24T03:36:17.840Z,19.37
2022-08-24T03:38:45.333Z,19.13
2022-08-24T03:41:13.401Z,19.71
2022-08-24T03:43:47.166Z,19.74
2022-08-24T03:46:29.296Z,19.05
2022-08-24T03:48:58.287Z,19.43
2022-08-24T03:51:28.494Z,19.95
2022-08-24T03:53:57.358Z,18.63
2022-08-24T03:56:25.924Z,19.27
2022-08-24T03:58:55.076Z,19.20
2022-08-24T04:01:23.280Z,19.44
2022-08-24T04:03:53.475Z,19.88
2022-08-24T04:06:22.128Z,19.83
2022-08-24T04:08:50.178Z,19.89
2022-08-24T04:11:20.558Z,19.69
2022-08-24T04:13:48.262Z,19.61
2022-08-24T04:16:19.059Z,19.67
2022-08-24T04:18:47.734Z,19.76
2022-08-24T04:21:35.537Z,19.99
2022-08-24T04:24:07.189Z,19.96
2022-08-24T04:26:45.472Z,19.99
2022-08-24T04:29:15.814Z,20.07
2022-08-24T04:31:44.340Z,20.04
2022-08-24T04:34:13.780Z,20.07
2022-08-24T04:36:43.689Z,20.25
2022-08-24T04:39:11.654Z,19.03
2022-08-24T04:41:42.749Z,19.48
2022-08-24T04:44:10.735Z,19.05
2022-08-24T04:46:39.265Z,19.84
2022-08-24T04:49:08.597Z,19.94
2022-08-24T04:51:36.990Z,19.91
2022-08-24T04:54:05.519Z,19.88
2022-08-24T04:56:32.985Z,19.49
2022-08-24T04:59:01.127Z,20.15
2022-08-24T05:01:29.750Z,19.99
2022-08-24T05:03:57.333Z,20.28
2022-08-24T05:06:29.044Z,20.34
2022-08-24T05:08:57.948Z,19.48
2022-08-24T05:11:26.997Z,18.83
2022-08-24T05:13:56.311Z,18.30
2022-08-24T05:16:24.833Z,19.27
2022-08-24T05:18:54.686Z,19.68
2022-08-24T05:21:23.781Z,19.33
2022-08-24T05:23:51.868Z,20.06
2022-08-24T05:26:25.472Z,20.33
2022-08-24T05:28:58.047Z,19.58
2022-08-24T05:31:28.385Z,18.90
2022-08-24T05:33:56.607Z,19.66
2022-08-24T05:36:30.284Z,19.31
2022-08-24T05:39:00.833Z,19.53
2022-08-24T05:41:29.022Z,19.48
2022-08-24T05:43:57.658Z,19.62
2022-08-24T05:46:26.261Z,19.50
2022-08-24T05:48:54.934Z,19.72
2022-08-24T05:51:22.645Z,20.13
2022-08-24T05:53:51.454Z,20.38
2022-08-24T05:56:20.119Z,20.80
2022-08-24T05:58:48.253Z,21.17
2022-08-24T06:01:21.230Z,20.17
2022-08-24T06:03:50.870Z,20.70
2022-08-24T06:06:20.118Z,21.03
2022-08-24T06:08:50.584Z,19.96
2022-08-24T06:11:30.146Z,20.41
2022-08-24T06:14:01.687Z,20.99
2022-08-24T06:16:30.705Z,21.35
2022-08-24T06:18:58.262Z,21.27
2022-08-24T06:21:28.172Z,20.74
2022-08-24T06:23:58.055Z,21.24
2022-08-24T06:26:45.143Z,21.37
2022-08-24T06:29:19.404Z,21.91
2022-08-24T06:31:54.223Z,21.57
2022-08-24T06:34:24.493Z,21.12
2022-08-24T06:36:53.809Z,21.62
2022-08-24T06:39:21.826Z,21.88
2022-08-24T06:41:50.636Z,22.21
2022-08-24T06:44:18.870Z,22.58
2022-08-24T06:46:47.330Z,22.23
2022-08-24T06:49:15.095Z,21.48
2022-08-24T06:51:42.501Z,21.65
2022-08-24T06:54:10.563Z,22.16
2022-08-24T06:56:38.668Z,22.36
2022-08-24T06:59:06.585Z,22.38
2022-08-24T07:01:35.105Z,22.44
2022-08-24T07:04:03.149Z,21.80
2022-08-24T07:06:35.011Z,21.52
2022-08-24T07:09:02.784Z,21.63
2022-08-24T07:11:32.779Z,22.05
2022-08-24T07:14:00.867Z,22.21
2022-08-24T07:16:28.744Z,22.10
2022-08-24T07:18:57.052Z,21.68
2022-08-24T07:21:25.323Z,21.61
2022-08-24T07:23:56.408Z,22.21
2022-08-24T07:26:25.700Z,23.37
2022-08-24T07:28:56.357Z,22.55
2022-08-24T07:31:24.089Z,23.19
2022-08-24T07:33:51.951Z,23.53
2022-08-24T07:36:22.754Z,22.81
2022-08-24T07:38:54.753Z,24.14
2022-08-24T07:41:56.664Z,23.92
2022-08-24T07:44:15.638Z,23.72
2022-08-24T07:46:44.110Z,25.34
2022-08-24T07:49:29.232Z,27.13
2022-08-24T07:51:59.375Z,28.18
2022-08-24T07:54:28.894Z,29.18
2022-08-24T07:56:56.573Z,29.98
2022-08-24T07:59:24.344Z,30.28
2022-08-24T08:01:53.021Z,30.08
2022-08-24T08:04:28.048Z,30.42
2022-08-24T08:09:31.311Z,30.19
2022-08-24T08:11:59.582Z,30.85
2022-08-24T08:14:27.539Z,31.82
2022-08-24T08:16:56.213Z,32.55
2022-08-24T08:19:23.840Z,32.18
2022-08-24T08:22:12.219Z,32.45
2022-08-24T08:24:44.985Z,32.60
2022-08-24T08:27:16.392Z,32.96
2022-08-24T08:29:44.231Z,32.52
2022-08-24T08:32:14.867Z,31.73
2022-08-24T08:34:43.893Z,31.67
2022-08-24T08:37:13.053Z,31.30
2022-08-24T08:39:41.153Z,31.38
2022-08-24T08:42:24.270Z,30.63
2022-08-24T08:44:52.468Z,30.75
2022-08-24T08:47:57.899Z,30.18
2022-08-24T08:50:45.526Z,30.09
2022-08-24T08:53:37.057Z,30.36
2022-08-24T08:56:26.175Z,29.71
2022-08-24T08:59:13.098Z,29.19
2022-08-24T09:01:53.561Z,29.66
2022-08-24T09:04:31.842Z,29.52
2022-08-24T09:07:19.765Z,29.67
2022-08-24T09:10:16.847Z,29.59
2022-08-24T09:12:57.107Z,29.65
2022-08-24T09:15:43.882Z,29.64
2022-08-24T09:18:46.084Z,29.51
2022-08-24T09:21:55.098Z,29.82
2022-08-24T09:24:31.097Z,29.94
2022-08-24T09:27:06.112Z,29.96
2022-08-24T09:29:57.634Z,29.95
2022-08-24T09:32:46.983Z,30.97
2022-08-24T09:35:42.934Z,29.99
2022-08-24T09:38:48.345Z,30.18
2022-08-24T09:41:41.746Z,30.73
2022-08-24T09:44:40.583Z,30.10
2022-08-24T09:47:17.500Z,30.01
2022-08-24T09:49:56.689Z,30.27
2022-08-24T09:52:36.567Z,29.55
2022-08-24T09:55:25.195Z,29.49
2022-08-24T09:58:00.961Z,29.83
2022-08-24T10:00:39.506Z,30.07
2022-08-24T10:03:34.997Z,30.23
2022-08-24T10:06:10.573Z,30.07
2022-08-24T10:08:55.509Z,29.88
2022-08-24T10:11:26.242Z,30.44
2022-08-24T10:14:31.481Z,30.76
2022-08-24T10:17:34.035Z,30.60
2022-08-24T10:21:15.227Z,30.56
2022-08-24T10:23:49.361Z,30.51
2022-08-24T10:26:20.819Z,30.44
2022-08-24T10:29:11.764Z,30.44
2022-08-24T10:31:56.012Z,30.30
2022-08-24T10:34:51.405Z,30.11
2022-08-24T10:37:31.032Z,30.13
2022-08-24T10:40:13.147Z,30.12
2022-08-24T10:43:09.164Z,30.31
2022-08-24T10:46:02.231Z,29.87
2022-08-24T10:48:30.074Z,29.66
2022-08-24T10:51:38.052Z,29.80
2022-08-24T10:54:06.541Z,29.90
2022-08-24T10:56:43.980Z,29.94
2022-08-24T10:59:19.156Z,29.81
2022-08-24T11:02:21.421Z,29.40
2022-08-24T11:04:56.527Z,29.31
2022-08-24T11:07:24.002Z,29.35
2022-08-24T11:10:00.069Z,29.45
2022-08-24T11:12:36.676Z,29.42
2022-08-24T11:15:11.253Z,29.58
2022-08-24T11:18:00.279Z,29.54
2022-08-24T11:20:50.425Z,30.03
2022-08-24T11:23:31.776Z,29.73
2022-08-24T11:26:19.383Z,28.20
2022-08-24T11:28:51.195Z,29.11
2022-08-24T11:31:33.830Z,29.27
2022-08-24T11:34:10.720Z,28.71
2022-08-24T11:36:39.637Z,28.76
2022-08-24T11:39:27.977Z,28.79
2022-08-24T11:42:27.411Z,27.98
2022-08-24T11:45:00.604Z,27.78
2022-08-24T11:47:40.620Z,27.40
2022-08-24T11:50:30.061Z,27.22
2022-08-24T11:53:12.163Z,26.47
2022-08-24T11:55:57.157Z,25.81
2022-08-24T11:58:43.957Z,25.77
2022-08-24T12:01:24.806Z,25.28
2022-08-24T12:03:55.686Z,24.88
2022-08-24T12:06:45.057Z,24.74
2022-08-24T12:09:50.285Z,24.27
2022-08-24T12:12:28.421Z,24.48
2022-08-24T12:15:17.706Z,24.24
2022-08-24T12:18:10.127Z,23.98
2022-08-24T12:20:48.278Z,23.79
2022-08-24T12:23:40.815Z,22.87
2022-08-24T12:26:17.909Z,23.91
2022-08-24T12:28:54.463Z,23.79
2022-08-24T12:31:32.415Z,23.02
2022-08-24T12:34:02.766Z,23.11
2022-08-24T12:36:39.933Z,22.05
2022-08-24T12:39:21.393Z,22.29
2022-08-24T12:41:58.458Z,23.23
2022-08-24T12:44:39.465Z,22.46
2022-08-24T12:47:07.187Z,23.30
2022-08-24T12:49:45.510Z,23.12
2022-08-24T12:52:55.765Z,22.38
2022-08-24T12:55:35.807Z,22.12
2022-08-24T12:58:32.200Z,22.73
2022-08-24T13:00:59.156Z,22.58
2022-08-24T13:03:38.908Z,22.85
2022-08-24T13:06:25.874Z,23.44
2022-08-24T13:09:07.223Z,23.20
2022-08-24T13:11:35.850Z,24.32
2022-08-24T13:14:03.459Z,24.26
2022-08-24T13:17:09.348Z,23.34
2022-08-24T13:19:43.691Z,23.38
2022-08-24T13:22:11.011Z,23.47
2022-08-24T13:25:07.025Z,23.27
2022-08-24T13:27:37.352Z,23.46
2022-08-24T13:30:08.695Z,23.86
2022-08-24T13:32:44.660Z,23.84
2022-08-24T13:35:41.875Z,23.93
2022-08-24T13:38:42.304Z,24.46
2022-08-24T13:41:13.727Z,24.86
2022-08-24T13:43:54.770Z,24.83
2022-08-24T13:46:46.541Z,25.06
2022-08-24T13:49:24.764Z,25.11
2022-08-24T13:51:58.523Z,25.07
2022-08-24T13:54:43.900Z,24.99
2022-08-24T13:57:22.008Z,24.77
2022-08-24T14:00:17.458Z,25.03
2022-08-24T14:03:00.609Z,25.00
2022-08-24T14:05:41.707Z,25.29
2022-08-24T14:08:24.513Z,25.37
2022-08-24T14:11:10.444Z,24.96
2022-08-24T14:13:59.883Z,24.86
2022-08-24T14:17:19.848Z,25.05
2022-08-24T14:19:59.547Z,25.08
2022-08-24T14:23:03.850Z,25.02
2022-08-24T14:25:33.859Z,24.79
2022-08-24T14:28:01.293Z,24.80
2022-08-24T14:30:28.627Z,24.87
2022-08-24T14:32:59.713Z,24.95
2022-08-24T14:35:43.490Z,25.14
2022-08-24T14:38:14.180Z,25.20
2022-08-24T14:41:18.408Z,25.15
2022-08-24T14:44:06.943Z,24.85
2022-08-24T14:46:49.526Z,25.31
2022-08-24T14:49:34.921Z,25.68
2022-08-24T14:52:43.988Z,24.67
2022-08-24T14:55:28.054Z,24.87
2022-08-24T14:58:00.840Z,25.22
2022-08-24T15:00:48.413Z,24.92
2022-08-24T15:03:32.995Z,25.24
2022-08-24T15:06:26.784Z,25.56
2022-08-24T15:09:11.213Z,25.93
2022-08-24T15:11:41.405Z,25.00
2022-08-24T15:14:23.585Z,25.54
2022-08-24T15:16:59.721Z,26.38
2022-08-24T15:19:43.779Z,27.01
2022-08-24T15:22:29.991Z,26.84
2022-08-24T15:25:03.819Z,26.84
2022-08-24T15:27:57.057Z,26.59
2022-08-24T15:30:34.179Z,26.77
2022-08-24T15:33:10.533Z,26.84
2022-08-24T15:35:44.079Z,27.07
2022-08-24T15:38:19.260Z,26.74
2022-08-24T15:40:48.097Z,26.53
2022-08-24T15:43:16.369Z,25.75
2022-08-24T15:45:49.511Z,25.70
2022-08-24T15:48:20.868Z,25.81
2022-08-24T15:50:48.769Z,25.78
2022-08-24T15:56:36.029Z,26.13
2022-08-24T15:59:13.481Z,25.16
2022-08-24T16:01:59.351Z,25.67
2022-08-24T16:05:01.508Z,26.06
2022-08-24T16:07:59.851Z,26.05
2022-08-24T16:10:48.154Z,26.63
2022-08-24T16:13:37.631Z,26.65
2022-08-24T16:16:12.983Z,26.98
2022-08-24T16:18:58.002Z,26.71
2022-08-24T16:21:34.513Z,26.45
2022-08-24T16:24:12.031Z,26.40
2022-08-24T16:26:56.016Z,26.04
2022-08-24T16:29:43.118Z,26.48
2022-08-24T16:32:33.739Z,25.54
2022-08-24T16:35:11.611Z,25.48
2022-08-24T16:37:39.910Z,26.02
2022-08-24T16:40:08.595Z,26.57
2022-08-24T16:42:36.754Z,26.14
2022-08-24T16:45:06.320Z,26.10
2022-08-24T16:47:33.851Z,26.02
2022-08-24T16:50:01.268Z,25.88
2022-08-24T16:52:29.229Z,26.42
2022-08-24T16:54:57.610Z,26.97
2022-08-24T16:57:29.763Z,26.08
2022-08-24T16:59:57.773Z,25.83
2022-08-24T17:02:27.781Z,25.94
2022-08-24T17:04:56.219Z,25.92
2022-08-24T17:07:26.684Z,25.66
2022-08-24T17:09:54.808Z,25.83
2022-08-24T17:12:22.651Z,26.26
2022-08-24T17:14:50.440Z,26.06
2022-08-24T17:17:23.017Z,25.85
2022-08-24T17:19:53.453Z,25.81
2022-08-24T17:22:22.292Z,25.46
2022-08-24T17:24:49.881Z,26.07
2022-08-24T17:27:18.556Z,26.47
2022-08-24T17:29:46.805Z,26.54
2022-08-24T17:32:15.020Z,25.21
2022-08-24T17:34:42.835Z,24.49
2022-08-24T17:37:10.904Z,24.91
2022-08-24T17:39:38.937Z,25.36
2022-08-24T17:42:22.294Z,25.00
2022-08-24T17:44:54.944Z,24.69
2022-08-24T17:47:22.744Z,24.66
2022-08-24T17:49:50.271Z,25.03
2022-08-24T17:52:17.861Z,24.82
2022-08-24T17:54:45.882Z,24.60
2022-08-24T17:57:14.534Z,24.03
2022-08-24T17:59:42.635Z,23.99
2022-08-24T18:02:15.255Z,24.00
2022-08-24T18:04:44.076Z,24.00
2022-08-24T18:07:13.623Z,24.00
2022-08-24T18:09:48.497Z,23.83
2022-08-24T18:12:18.340Z,23.32
2022-08-24T18:14:46.003Z,23.90
2022-08-24T18:17:28.459Z,24.43
2022-08-24T18:19:58.399Z,24.07
2022-08-24T18:22:25.900Z,23.96
2022-08-24T18:24:53.439Z,23.98
2022-08-24T18:27:27.140Z,23.32
2022-08-24T18:30:02.591Z,23.34
2022-08-24T18:32:33.476Z,22.85
2022-08-24T18:35:02.801Z,22.51
2022-08-24T18:37:30.242Z,23.07
2022-08-24T18:39:58.106Z,23.82
2022-08-24T18:42:27.653Z,23.62
2022-08-24T18:44:55.198Z,23.68
2022-08-24T18:47:23.029Z,23.58
2022-08-24T18:49:50.466Z,23.52
2022-08-24T18:52:19.639Z,23.65
2022-08-24T18:54:49.469Z,23.43
2022-08-24T18:57:18.019Z,23.41
2022-08-24T18:59:46.200Z,23.35
2022-08-24T19:02:35.802Z,23.36
2022-08-24T19:05:06.711Z,23.30
2022-08-24T19:07:40.954Z,22.96
2022-08-24T19:10:10.346Z,22.90
2022-08-24T19:12:42.675Z,23.03
2022-08-24T19:15:34.524Z,22.95
2022-08-24T19:18:05.506Z,22.85
2022-08-24T19:20:34.551Z,22.56
2022-08-24T19:23:08.013Z,22.89
2022-08-24T19:25:55.061Z,22.53
2022-08-24T19:28:23.600Z,22.52
2022-08-24T19:30:55.502Z,22.61
2022-08-24T19:33:26.772Z,22.33
2022-08-24T19:35:54.825Z,22.44
2022-08-24T19:38:25.714Z,22.48
2022-08-24T19:40:56.539Z,22.55
2022-08-24T19:43:28.486Z,22.51
2022-08-24T19:46:05.700Z,22.63
2022-08-24T19:48:35.994Z,22.86
2022-08-24T19:51:05.847Z,23.16
2022-08-24T19:53:36.167Z,23.46
2022-08-24T19:56:05.634Z,23.69
2022-08-24T19:58:38.807Z,23.66
2022-08-24T20:01:13.431Z,23.37
2022-08-24T20:03:41.404Z,23.33
2022-08-24T20:06:09.578Z,23.14
2022-08-24T20:08:37.417Z,22.98
2022-08-24T20:11:06.357Z,23.03
2022-08-24T20:13:34.970Z,22.89
2022-08-24T20:16:10.629Z,22.48
2022-08-24T20:18:39.278Z,22.27
2022-08-24T20:21:08.186Z,21.48
2022-08-24T20:23:36.260Z,21.43
2022-08-24T20:26:06.334Z,21.47
2022-08-24T20:28:40.185Z,21.30
2022-08-24T20:31:08.104Z,21.34
2022-08-24T20:33:35.948Z,20.95
2022-08-24T20:36:04.130Z,21.10
2022-08-24T20:38:32.385Z,21.18
2022-08-24T20:41:01.502Z,21.19
2022-08-24T20:43:29.277Z,20.91
2022-08-24T20:45:57.093Z,20.79
2022-08-24T20:48:28.092Z,20.78
2022-08-24T20:50:55.804Z,20.91
2022-08-24T20:53:23.666Z,20.67
2022-08-24T20:55:51.467Z,20.96
2022-08-24T20:58:21.339Z,21.27
2022-08-24T21:00:49.443Z,21.37
2022-08-24T21:03:18.856Z,21.96
2022-08-24T21:05:48.664Z,21.95
2022-08-24T21:08:16.199Z,21.72
2022-08-24T21:10:44.774Z,20.99
2022-08-24T21:13:12.332Z,20.89
2022-08-24T21:15:41.546Z,20.67
2022-08-24T21:18:10.837Z,20.87
2022-08-24T21:20:39.025Z,21.01
2022-08-24T21:23:12.342Z,20.98
2022-08-24T21:25:40.048Z,21.05
2022-08-24T21:28:07.565Z,20.97
2022-08-24T21:30:35.440Z,21.10
2022-08-24T21:33:24.571Z,21.20
2022-08-24T21:35:55.025Z,21.43
2022-08-24T21:38:25.273Z,21.53
2022-08-24T21:40:53.678Z,21.48
2022-08-24T21:43:21.740Z,21.31
2022-08-24T21:45:52.796Z,21.35
2022-08-24T21:48:20.708Z,21.40
2022-08-24T21:50:48.793Z,21.35
2022-08-24T21:53:16.776Z,21.42
2022-08-24T21:55:44.615Z,21.05
2022-08-24T21:58:12.355Z,20.46
2022-08-24T22:00:39.887Z,20.45
2022-08-24T22:03:08.792Z,20.61
2022-08-24T22:05:36.495Z,20.31
2022-08-24T22:08:04.179Z,20.19
2022-08-24T22:10:32.229Z,20.38
2022-08-24T22:13:03.811Z,20.09
2022-08-24T22:15:33.269Z,20.09
2022-08-24T22:18:01.441Z,20.46
2022-08-24T22:20:28.957Z,20.88
2022-08-24T22:22:58.466Z,21.28
2022-08-24T22:25:26.114Z,21.30
2022-08-24T22:27:53.643Z,21.13
2022-08-24T22:30:21.522Z,21.06
2022-08-24T22:32:49.054Z,20.87
2022-08-24T22:35:16.627Z,20.80
2022-08-24T22:37:44.378Z,20.75
2022-08-24T22:40:12.830Z,20.65
2022-08-24T22:42:41.019Z,20.85
2022-08-24T22:45:09.958Z,21.23
2022-08-24T22:47:38.631Z,21.76
2022-08-24T22:50:07.142Z,22.06
2022-08-24T22:52:34.860Z,22.34
2022-08-24T22:55:03.113Z,22.37
2022-08-24T22:57:30.533Z,22.24
2022-08-24T22:59:58.345Z,22.25
2022-08-24T23:02:25.829Z,21.66
2022-08-24T23:04:53.808Z,21.04
2022-08-24T23:07:21.553Z,21.07
2022-08-24T23:09:49.286Z,21.09
2022-08-24T23:12:20.678Z,21.13
2022-08-24T23:14:50.486Z,21.25
2022-08-24T23:17:18.987Z,21.47
2022-08-24T23:20:02.027Z,21.73
2022-08-24T23:22:35.006Z,21.90
2022-08-24T23:25:03.077Z,22.44
2022-08-24T23:27:32.638Z,22.61
2022-08-24T23:30:08.505Z,21.38
2022-08-24T23:32:36.260Z,20.83
2022-08-24T23:35:04.694Z,20.96
2022-08-24T23:37:32.258Z,21.06
2022-08-24T23:40:00.062Z,20.88
2022-08-24T23:42:27.522Z,20.84
2022-08-24T23:44:55.508Z,20.77
2022-08-24T23:47:23.274Z,20.69
2022-08-24T23:49:51.124Z,20.47
2022-08-24T23:52:26.412Z,20.45
2022-08-24T23:55:11.572Z,20.08
2022-08-24T23:57:45.170Z,19.81
